Time;durP1;ratioP1;P1;durP2;ratioP2;P2;SDS_P1;SDS_P2;PMS_P1;PMS_P2;Temp;Humidity;BMP_temperature;BMP_pressure;BME280_temperature;BME280_humidity;BME280_pressure;Samples;Min_cycle;Max_cycle;Signal;HPM_P1;HPM_P2
2022/10/13 00:01:26;;;;;;;1999.90;999.90;;;10.30;99.90;;;;;;5071092;28;20949;-67
2022/10/13 00:03:53;;;;;;;1999.90;999.90;;;10.30;99.90;;;;;;5070925;28;20439;-67
2022/10/13 00:06:22;;;;;;;1999.90;999.90;;;10.40;99.90;;;;;;5065702;28;20481;-67
2022/10/13 00:08:49;;;;;;;1999.90;999.90;;;10.40;99.90;;;;;;5072143;28;20447;-67
2022/10/13 00:11:17;;;;;;;1999.90;999.90;;;10.40;99.90;;;;;;5071113;28;20498;-67
2022/10/13 00:13:46;;;;;;;1999.90;999.90;;;10.40;99.90;;;;;;5071322;28;20443;-67
2022/10/13 00:16:15;;;;;;;1999.90;999.90;;;10.50;99.90;;;;;;5072160;28;20463;-67
2022/10/13 00:18:42;;;;;;;1999.90;999.90;;;10.50;99.90;;;;;;5072300;28;20528;-67
2022/10/13 00:21:10;;;;;;;1999.90;999.90;;;10.50;99.90;;;;;;5072202;28;20439;-67
2022/10/13 00:23:38;;;;;;;1999.90;999.90;;;10.40;99.90;;;;;;5072185;28;20450;-67
2022/10/13 00:26:06;;;;;;;1999.90;999.90;;;10.40;99.90;;;;;;5071714;28;20841;-67
2022/10/13 00:28:33;;;;;;;1999.90;999.90;;;10.40;99.90;;;;;;5071845;28;20450;-68
2022/10/13 00:31:01;;;;;;;1999.90;999.90;;;10.40;99.90;;;;;;5071786;28;20482;-67
2022/10/13 00:33:28;;;;;;;1999.90;999.90;;;10.40;99.90;;;;;;5072005;28;20800;-67
2022/10/13 00:35:55;;;;;;;1999.90;999.90;;;10.40;99.90;;;;;;5071679;28;20471;-67
2022/10/13 00:38:23;;;;;;;1999.90;999.90;;;10.50;99.90;;;;;;5072039;28;20447;-67
2022/10/13 00:40:51;;;;;;;1999.90;999.90;;;10.50;99.90;;;;;;5071198;28;20960;-67
2022/10/13 00:43:19;;;;;;;1999.90;999.90;;;10.50;99.90;;;;;;5071655;28;20443;-67
2022/10/13 00:45:48;;;;;;;1999.90;999.90;;;10.60;99.90;;;;;;5072047;28;20834;-67
2022/10/13 00:48:18;;;;;;;1999.90;999.90;;;10.60;99.90;;;;;;5071874;28;20561;-68
2022/10/13 00:50:46;;;;;;;1999.90;999.90;;;10.60;99.90;;;;;;5072160;28;20447;-67
2022/10/13 00:53:16;;;;;;;1999.90;999.90;;;10.60;99.90;;;;;;5071403;28;20446;-67
2022/10/13 00:55:44;;;;;;;1999.90;999.90;;;10.60;99.90;;;;;;5071555;28;20462;-67
2022/10/13 00:58:15;;;;;;;1999.90;999.90;;;10.60;99.90;;;;;;5071490;28;20451;-67
2022/10/13 01:00:44;;;;;;;1999.90;999.90;;;10.60;99.90;;;;;;5071708;28;20447;-67
2022/10/13 01:03:11;;;;;;;1999.90;999.90;;;10.60;99.90;;;;;;5071185;28;20443;-67
2022/10/13 01:05:41;;;;;;;1999.90;999.90;;;10.70;99.90;;;;;;5070859;28;20471;-67
2022/10/13 01:08:11;;;;;;;1999.90;999.90;;;10.70;99.90;;;;;;5071217;28;20454;-67
2022/10/13 01:10:52;;;;;;;1999.90;999.90;;;10.70;99.90;;;;;;5070709;28;20453;-67
2022/10/13 01:13:26;;;;;;;1999.90;999.90;;;10.60;99.90;;;;;;5070923;28;20803;-67
2022/10/13 01:15:59;;;;;;;1999.90;999.90;;;10.50;99.90;;;;;;5071011;28;20463;-67
2022/10/13 01:18:36;;;;;;;1999.90;999.90;;;10.50;99.90;;;;;;5070773;28;20446;-67
2022/10/13 01:21:14;;;;;;;1999.90;999.90;;;10.50;99.90;;;;;;5070918;28;20446;-67
2022/10/13 01:24:11;;;;;;;1999.90;999.90;;;10.60;99.90;;;;;;5071032;28;20446;-67
2022/10/13 01:26:56;;;;;;;1999.90;999.90;;;10.70;99.90;;;;;;5070496;28;20850;-67
2022/10/13 01:30:03;;;;;;;1999.90;999.90;;;10.70;99.90;;;;;;5070890;28;20439;-67
2022/10/13 01:32:50;;;;;;;1999.90;999.90;;;10.70;99.90;;;;;;5070448;28;20504;-67
2022/10/13 01:35:20;;;;;;;1999.90;999.90;;;10.80;99.90;;;;;;5070632;28;20842;-67
2022/10/13 01:37:53;;;;;;;1999.90;999.90;;;10.80;99.90;;;;;;5070717;28;20439;-67
2022/10/13 01:40:26;;;;;;;1999.90;999.90;;;10.80;99.90;;;;;;5070608;28;20461;-67
2022/10/13 01:42:58;;;;;;;1999.90;999.90;;;10.80;99.90;;;;;;5070163;28;20435;-67
2022/10/13 01:45:31;;;;;;;1999.90;999.90;;;10.80;99.90;;;;;;5070196;28;20802;-67
2022/10/13 01:48:01;;;;;;;1999.90;999.90;;;10.90;99.90;;;;;;5070586;28;20451;-67
2022/10/13 01:50:28;;;;;;;1999.90;999.90;;;10.90;99.90;;;;;;5070338;28;20457;-68
2022/10/13 01:52:58;;;;;;;1999.90;999.90;;;10.90;99.90;;;;;;5070067;28;20490;-68
2022/10/13 01:55:24;;;;;;;1999.90;999.90;;;10.80;99.90;;;;;;5069950;28;20443;-68
2022/10/13 01:57:51;;;;;;;1999.90;999.90;;;10.80;99.90;;;;;;5070337;28;20447;-68
2022/10/13 02:00:20;;;;;;;1999.90;999.90;;;10.70;99.90;;;;;;5070389;28;20450;-68
2022/10/13 02:02:55;;;;;;;1999.90;999.90;;;10.70;99.90;;;;;;5069976;28;20959;-68
2022/10/13 02:05:30;;;;;;;1999.90;999.90;;;10.70;99.90;;;;;;5070183;28;20447;-68
2022/10/13 02:08:02;;;;;;;1999.90;999.90;;;10.60;99.90;;;;;;5070271;28;20443;-68
2022/10/13 02:10:33;;;;;;;1999.90;999.90;;;10.60;99.90;;;;;;5069895;28;20446;-68
2022/10/13 02:13:03;;;;;;;1999.90;999.90;;;10.50;99.90;;;;;;5070164;28;20478;-68
2022/10/13 02:15:33;;;;;;;1999.90;999.90;;;10.50;99.90;;;;;;5070054;28;20442;-68
2022/10/13 02:18:01;;;;;;;1999.90;999.90;;;10.50;99.90;;;;;;5070254;28;20446;-68
2022/10/13 02:20:31;;;;;;;1999.90;999.90;;;10.50;99.90;;;;;;5066918;28;20447;-68
2022/10/13 02:23:04;;;;;;;1999.90;999.90;;;10.50;99.90;;;;;;5067342;28;20447;-67
2022/10/13 02:25:34;;;;;;;1999.90;999.90;;;10.60;99.90;;;;;;5069590;28;20455;-68
2022/10/13 02:28:02;;;;;;;1999.90;999.90;;;10.50;99.90;;;;;;5068088;28;20458;-68
2022/10/13 02:30:32;;;;;;;1999.90;999.90;;;10.50;99.90;;;;;;5069992;28;20443;-68
2022/10/13 02:32:59;;;;;;;1999.90;999.90;;;10.50;99.90;;;;;;5069426;28;20511;-68
2022/10/13 02:35:25;;;;;;;1999.90;999.90;;;10.50;99.90;;;;;;5069333;28;20451;-68
2022/10/13 02:37:54;;;;;;;1999.90;999.90;;;10.50;99.90;;;;;;5069453;28;20436;-68
2022/10/13 02:40:20;;;;;;;1999.90;999.90;;;10.50;99.90;;;;;;5069944;28;20601;-68
2022/10/13 02:42:47;;;;;;;1999.90;999.90;;;10.40;99.90;;;;;;5069557;28;20647;-68
2022/10/13 02:45:14;;;;;;;1999.90;999.90;;;10.50;99.90;;;;;;5069845;28;20937;-68
2022/10/13 02:47:41;;;;;;;1999.90;999.90;;;10.60;99.90;;;;;;5070177;28;20478;-67
2022/10/13 02:50:08;;;;;;;1999.90;999.90;;;10.70;99.90;;;;;;5069920;28;21123;-68
2022/10/13 02:52:35;;;;;;;1999.90;999.90;;;10.80;99.90;;;;;;5069557;28;20475;-68
2022/10/13 02:55:04;;;;;;;1999.90;999.90;;;10.90;99.90;;;;;;5069631;28;20952;-68
2022/10/13 02:57:31;;;;;;;1999.90;999.90;;;10.90;99.90;;;;;;5070210;28;20471;-68
2022/10/13 02:59:57;;;;;;;1999.90;999.90;;;10.90;99.90;;;;;;5069893;28;20438;-68
2022/10/13 03:02:26;;;;;;;1999.90;999.90;;;10.80;99.90;;;;;;5069877;28;20435;-68
2022/10/13 03:04:53;;;;;;;1999.90;999.90;;;10.70;99.90;;;;;;5066977;28;20439;-68
2022/10/13 03:07:20;;;;;;;1999.90;999.90;;;10.70;99.90;;;;;;5069653;28;20463;-68
2022/10/13 03:09:46;;;;;;;1999.90;999.90;;;10.60;99.90;;;;;;5069795;28;20465;-68
2022/10/13 03:12:15;;;;;;;1999.90;999.90;;;10.60;99.90;;;;;;5069251;28;20475;-68
2022/10/13 03:14:42;;;;;;;1999.90;999.90;;;10.50;99.90;;;;;;5069489;28;20474;-68
2022/10/13 03:17:09;;;;;;;1999.90;999.90;;;10.50;99.90;;;;;;5069383;28;21039;-68
2022/10/13 03:19:35;;;;;;;1999.90;999.90;;;10.40;99.90;;;;;;5069515;28;20475;-68
2022/10/13 03:22:02;;;;;;;1999.90;999.90;;;10.50;99.90;;;;;;5068875;28;20447;-67
2022/10/13 03:24:29;;;;;;;1999.90;999.90;;;10.60;99.90;;;;;;5069507;28;20453;-67
2022/10/13 03:26:56;;;;;;;1999.90;999.90;;;10.60;99.90;;;;;;5069203;28;20459;-68
2022/10/13 03:29:24;;;;;;;1999.90;999.90;;;10.70;99.90;;;;;;5069630;28;20439;-68
2022/10/13 03:31:51;;;;;;;1999.90;999.90;;;10.70;99.90;;;;;;5068989;28;20853;-67
2022/10/13 03:34:19;;;;;;;1999.90;999.90;;;10.70;99.90;;;;;;5073091;28;20447;-68
2022/10/13 03:36:46;;;;;;;1999.90;999.90;;;10.80;99.90;;;;;;5073106;28;20459;-68
2022/10/13 03:39:13;;;;;;;1999.90;999.90;;;10.80;99.90;;;;;;5073270;28;20501;-68
2022/10/13 03:41:40;;;;;;;1999.90;999.90;;;10.90;99.90;;;;;;5072923;28;20438;-68
2022/10/13 03:44:07;;;;;;;1999.90;999.90;;;10.90;99.90;;;;;;5073245;28;20501;-68
2022/10/13 03:46:35;;;;;;;1999.90;999.90;;;10.90;99.90;;;;;;5072920;28;20471;-68
2022/10/13 03:49:02;;;;;;;1999.90;999.90;;;10.90;99.90;;;;;;5072593;28;20443;-68
2022/10/13 03:51:29;;;;;;;1999.90;999.90;;;11.00;99.90;;;;;;5072865;28;20442;-67
2022/10/13 03:53:56;;;;;;;1999.90;999.90;;;10.90;99.90;;;;;;5072541;28;20869;-68
2022/10/13 03:56:25;;;;;;;1999.90;999.90;;;11.00;99.90;;;;;;5072670;28;20862;-68
2022/10/13 03:58:54;;;;;;;1999.90;999.90;;;11.00;99.90;;;;;;5072218;28;20521;-68
2022/10/13 04:01:21;;;;;;;1999.90;999.90;;;11.00;99.90;;;;;;5070098;28;20483;-68
2022/10/13 04:03:50;;;;;;;1999.90;999.90;;;11.00;99.90;;;;;;5072571;28;20813;-68
2022/10/13 04:06:17;;;;;;;1999.90;999.90;;;11.10;99.90;;;;;;5072447;28;20993;-66
2022/10/13 04:08:44;;;;;;;1999.90;999.90;;;11.10;99.90;;;;;;5072423;28;20450;-67
2022/10/13 04:11:12;;;;;;;1999.90;999.90;;;11.20;99.90;;;;;;5072472;28;20462;-66
2022/10/13 04:13:39;;;;;;;1999.90;999.90;;;11.30;99.90;;;;;;5072247;28;20490;-67
2022/10/13 04:16:09;;;;;;;1999.90;999.90;;;11.30;99.90;;;;;;5072005;28;20467;-65
2022/10/13 04:18:36;;;;;;;1999.90;999.90;;;11.30;99.90;;;;;;5072260;28;20454;-66
2022/10/13 04:21:09;;;;;;;1999.90;999.90;;;11.40;99.90;;;;;;5071857;28;20953;-66
2022/10/13 04:23:36;;;;;;;1999.90;999.90;;;11.50;99.90;;;;;;5072077;28;20534;-65
2022/10/13 04:26:04;;;;;;;1999.90;999.90;;;11.50;99.90;;;;;;5072039;28;20475;-65
2022/10/13 04:28:32;;;;;;;1999.90;999.90;;;11.60;99.90;;;;;;5072169;28;20435;-65
2022/10/13 04:30:59;;;;;;;1999.90;999.90;;;11.50;99.90;;;;;;5071868;28;20447;-65
2022/10/13 04:33:26;;;;;;;1999.90;999.90;;;11.60;99.90;;;;;;5072089;28;20483;-66
2022/10/13 04:35:53;;;;;;;1999.90;999.90;;;11.50;99.90;;;;;;5071724;28;20486;-66
2022/10/13 04:38:21;;;;;;;1999.90;999.90;;;11.50;99.90;;;;;;5072229;28;20439;-66
2022/10/13 04:40:49;;;;;;;1999.90;999.90;;;11.40;99.90;;;;;;5067555;28;20444;-65
2022/10/13 04:43:16;;;;;;;1999.90;999.90;;;11.30;99.90;;;;;;5068920;28;20439;-65
2022/10/13 04:45:42;;;;;;;1999.90;999.90;;;11.20;99.90;;;;;;5070819;28;20466;-72
2022/10/13 04:48:09;;;;;;;1999.90;999.90;;;11.20;99.90;;;;;;5071424;28;20447;-70
2022/10/13 04:50:36;;;;;;;1999.90;999.90;;;11.10;99.90;;;;;;5071856;28;20447;-67
2022/10/13 04:53:03;;;;;;;1999.90;999.90;;;11.10;99.90;;;;;;5071243;28;20573;-69
2022/10/13 04:55:31;;;;;;;1999.90;999.90;;;11.10;99.90;;;;;;5069637;28;20460;-69
2022/10/13 04:57:58;;;;;;;1999.90;999.90;;;11.10;99.90;;;;;;5070576;28;20455;-69
2022/10/13 05:00:24;;;;;;;1999.90;999.90;;;11.00;99.90;;;;;;5071569;28;20446;-69
2022/10/13 05:02:51;;;;;;;1999.90;999.90;;;11.00;99.90;;;;;;5073325;28;20451;-70
2022/10/13 05:05:18;;;;;;;1999.90;999.90;;;11.00;99.90;;;;;;5071215;28;20791;-70
2022/10/13 05:07:45;;;;;;;1999.90;999.90;;;10.90;99.90;;;;;;5071734;28;20447;-70
2022/10/13 05:10:11;;;;;;;1999.90;999.90;;;10.80;99.90;;;;;;5071270;28;20450;-69
2022/10/13 05:12:40;;;;;;;1999.90;999.90;;;10.70;99.90;;;;;;5071127;28;20558;-69
2022/10/13 05:15:08;;;;;;;1999.90;999.90;;;10.70;99.90;;;;;;5071183;28;20978;-67
2022/10/13 05:17:34;;;;;;;1999.90;999.90;;;10.80;99.90;;;;;;5071427;28;20459;-69
2022/10/13 05:20:01;;;;;;;1999.90;999.90;;;10.80;99.90;;;;;;5070436;28;20447;-70
2022/10/13 05:22:28;;;;;;;1999.90;999.90;;;10.80;99.90;;;;;;5070812;28;20929;-70
2022/10/13 05:24:55;;;;;;;1999.90;999.90;;;10.80;99.90;;;;;;5071266;28;20446;-70
2022/10/13 05:27:22;;;;;;;1999.90;999.90;;;10.90;99.90;;;;;;5071140;28;20459;-69
2022/10/13 05:29:50;;;;;;;1999.90;999.90;;;10.90;99.90;;;;;;5071119;28;20443;-67
2022/10/13 05:32:17;;;;;;;1999.90;999.90;;;10.90;99.90;;;;;;5070671;28;20447;-69
2022/10/13 05:34:44;;;;;;;1999.90;999.90;;;10.90;99.90;;;;;;5070935;28;20455;-70
2022/10/13 05:37:10;;;;;;;1999.90;999.90;;;10.90;99.90;;;;;;5060799;28;20482;-71
2022/10/13 05:39:37;;;;;;;1999.90;999.90;;;11.00;99.90;;;;;;5069801;28;20475;-69
2022/10/13 05:42:04;;;;;;;1999.90;999.90;;;11.00;99.90;;;;;;5069330;28;20449;-69
2022/10/13 05:44:31;;;;;;;1999.90;999.90;;;11.10;99.90;;;;;;5069898;28;20447;-71
2022/10/13 05:46:59;;;;;;;1999.90;999.90;;;11.20;99.90;;;;;;5070564;28;20455;-70
2022/10/13 05:49:26;;;;;;;1999.90;999.90;;;11.30;99.90;;;;;;5069936;28;21019;-70
2022/10/13 05:51:57;;;;;;;1999.90;999.90;;;11.40;99.90;;;;;;5069577;28;20451;-70
2022/10/13 05:54:28;;;;;;;1999.90;999.90;;;11.40;99.90;;;;;;5069612;28;20574;-70
2022/10/13 05:56:58;;;;;;;1999.90;999.90;;;11.50;99.90;;;;;;5068414;28;20551;-69
2022/10/13 05:59:27;;;;;;;1999.90;999.90;;;11.50;99.90;;;;;;5069229;28;20435;-69
2022/10/13 06:01:54;;;;;;;1999.90;999.90;;;11.60;99.90;;;;;;5069012;28;20801;-69
2022/10/13 06:04:28;;;;;;;1999.90;999.90;;;11.60;99.90;;;;;;5069216;28;20454;-69
2022/10/13 06:06:55;;;;;;;1999.90;999.90;;;11.60;99.90;;;;;;5069317;28;20470;-69
2022/10/13 06:09:22;;;;;;;1999.90;999.90;;;11.70;99.90;;;;;;5068482;28;20471;-69
2022/10/13 06:11:49;;;;;;;1999.90;999.90;;;11.70;99.90;;;;;;5068148;28;20454;-69
2022/10/13 06:14:15;;;;;;;1999.90;999.90;;;11.80;99.90;;;;;;5069304;28;20991;-69
2022/10/13 06:16:42;;;;;;;1999.90;999.90;;;11.80;99.90;;;;;;5068963;28;20464;-69
2022/10/13 06:19:09;;;;;;;1999.90;999.90;;;11.90;99.90;;;;;;5069624;28;20450;-69
2022/10/13 06:21:37;;;;;;;1999.90;999.90;;;12.00;99.90;;;;;;5069794;28;21030;-69
2022/10/13 06:24:04;;;;;;;1999.90;999.90;;;12.10;99.90;;;;;;5069973;28;20479;-70
2022/10/13 06:26:31;;;;;;;1999.90;999.90;;;12.20;99.90;;;;;;5069825;28;20895;-69
2022/10/13 06:28:57;;;;;;;1999.90;999.90;;;12.20;99.90;;;;;;5069973;28;20826;-69
2022/10/13 06:31:24;;;;;;;1999.90;999.90;;;12.30;99.90;;;;;;5069764;28;20861;-69
2022/10/13 06:33:51;;;;;;;1999.90;999.90;;;12.40;99.90;;;;;;5069809;28;20505;-69
2022/10/13 06:36:18;;;;;;;1999.90;999.90;;;12.50;99.90;;;;;;5064308;28;20476;-68
2022/10/13 06:38:46;;;;;;;1999.90;999.90;;;12.50;99.90;;;;;;5061404;28;20458;-68
2022/10/13 06:41:13;;;;;;;1999.90;999.90;;;12.60;99.90;;;;;;5065885;28;20505;-68
2022/10/13 06:43:40;;;;;;;1999.90;999.90;;;12.60;99.90;;;;;;5068092;28;20929;-68
2022/10/13 06:46:08;;;;;;;1999.90;999.90;;;12.70;99.90;;;;;;5062154;28;20460;-67
2022/10/13 06:48:35;;;;;;;1999.90;999.90;;;12.70;99.90;;;;;;5048282;28;20444;-68
2022/10/13 06:51:02;;;;;;;1999.90;999.90;;;12.70;99.90;;;;;;5048308;28;20444;-67
2022/10/13 06:53:29;;;;;;;1999.90;999.90;;;12.80;99.90;;;;;;5048013;28;20484;-68
2022/10/13 06:55:58;;;;;;;1999.90;999.90;;;12.90;99.90;;;;;;5048532;28;20467;-67
2022/10/13 06:58:25;;;;;;;1999.90;999.90;;;12.90;99.90;;;;;;5048179;28;20909;-68
2022/10/13 07:00:52;;;;;;;1999.90;999.90;;;13.00;99.90;;;;;;5048328;28;21005;-68
2022/10/13 07:03:19;;;;;;;1999.90;999.90;;;13.10;99.90;;;;;;5047814;28;20440;-68
2022/10/13 07:05:46;;;;;;;1999.90;999.90;;;13.10;99.90;;;;;;5048530;28;20474;-68
2022/10/13 07:08:13;;;;;;;1999.90;999.90;;;13.20;99.90;;;;;;5050581;28;20451;-68
2022/10/13 07:10:40;;;;;;;1999.90;999.90;;;13.30;99.90;;;;;;5052523;28;20470;-67
2022/10/13 07:13:08;;;;;;;1999.90;999.90;;;13.40;99.90;;;;;;5051843;28;20472;-68
2022/10/13 07:15:38;;;;;;;1999.90;999.90;;;13.60;99.90;;;;;;5052354;28;20447;-68
2022/10/13 07:18:04;;;;;;;1999.90;999.90;;;13.70;99.90;;;;;;5052509;28;20497;-68
2022/10/13 07:20:32;;;;;;;1999.90;999.90;;;13.70;99.90;;;;;;5052043;28;20470;-68
2022/10/13 07:22:59;;;;;;;1999.90;999.90;;;13.80;99.90;;;;;;5052143;28;20444;-68
2022/10/13 07:25:26;;;;;;;1999.90;999.90;;;13.90;99.90;;;;;;5051785;28;20475;-67
2022/10/13 07:27:52;;;;;;;1999.90;999.90;;;13.90;99.90;;;;;;5052068;28;20448;-68
2022/10/13 07:30:20;;;;;;;1999.90;999.90;;;14.00;99.90;;;;;;5052031;28;20459;-68
2022/10/13 07:32:48;;;;;;;1999.90;999.90;;;14.00;99.90;;;;;;5052231;28;20444;-68
2022/10/13 07:35:14;;;;;;;1999.90;999.90;;;14.10;99.90;;;;;;5052310;28;20891;-68
2022/10/13 07:37:41;;;;;;;1999.90;999.90;;;14.20;99.90;;;;;;5052551;28;20463;-68
2022/10/13 07:40:09;;;;;;;1999.90;999.90;;;14.20;99.90;;;;;;5051712;28;20458;-68
2022/10/13 07:42:36;;;;;;;1999.90;999.90;;;14.30;99.90;;;;;;5051917;28;20458;-68
2022/10/13 07:45:03;;;;;;;1999.90;999.90;;;14.30;99.90;;;;;;5052426;28;20436;-68
2022/10/13 07:47:31;;;;;;;1999.90;999.90;;;14.40;99.90;;;;;;5052190;28;20468;-68
2022/10/13 07:49:58;;;;;;;1999.90;999.90;;;14.50;99.90;;;;;;5052222;28;20451;-68
2022/10/13 07:52:25;;;;;;;1999.90;999.90;;;14.70;99.90;;;;;;5051127;28;20448;-69
2022/10/13 07:54:52;;;;;;;1999.90;999.90;;;14.80;99.90;;;;;;5051931;28;20479;-74
2022/10/13 07:57:19;;;;;;;1999.90;999.90;;;14.80;99.90;;;;;;5051859;28;20471;-70
2022/10/13 07:59:46;;;;;;;1999.90;999.90;;;14.90;99.90;;;;;;5052022;28;20455;-70
2022/10/13 08:02:13;;;;;;;1999.90;999.90;;;14.90;99.90;;;;;;5058317;28;20455;-69
2022/10/13 08:04:41;;;;;;;1999.90;999.90;;;14.90;99.90;;;;;;5064570;28;20276;-68
2022/10/13 08:07:08;;;;;;;1999.90;999.90;;;15.00;99.90;;;;;;5071273;28;20467;-69
2022/10/13 08:09:35;;;;;;;1999.90;999.90;;;15.20;99.90;;;;;;5071591;28;20443;-69
2022/10/13 08:12:02;;;;;;;1999.90;999.90;;;15.30;99.90;;;;;;5071391;28;20466;-68
2022/10/13 08:14:29;;;;;;;1999.90;999.90;;;15.40;99.90;;;;;;5071401;28;20479;-69
2022/10/13 08:16:56;;;;;;;1999.90;999.90;;;15.40;99.90;;;;;;5071277;28;20477;-69
2022/10/13 08:19:25;;;;;;;1999.90;999.90;;;15.40;99.90;;;;;;5069939;28;20442;-69
2022/10/13 08:21:53;;;;;;;1999.90;999.90;;;15.40;99.90;;;;;;5070797;28;20538;-69
2022/10/13 08:24:21;;;;;;;1999.90;999.90;;;15.30;99.90;;;;;;5071578;28;20469;-68
2022/10/13 08:26:48;;;;;;;1999.90;999.90;;;15.30;99.90;;;;;;5071931;28;20470;-68
2022/10/13 08:29:16;;;;;;;1999.90;999.90;;;15.20;99.90;;;;;;5072054;28;20443;-68
2022/10/13 08:31:43;;;;;;;1999.90;999.90;;;15.20;99.90;;;;;;5071934;28;20443;-69
2022/10/13 08:34:11;;;;;;;1999.90;999.90;;;15.20;99.90;;;;;;5071946;28;20845;-68
2022/10/13 08:36:38;;;;;;;1999.90;999.90;;;15.10;99.90;;;;;;5066661;28;20459;-68
2022/10/13 08:39:06;;;;;;;1999.90;999.90;;;15.20;99.90;;;;;;5045722;28;20448;-69
2022/10/13 08:41:37;;;;;;;1999.90;999.90;;;15.30;99.90;;;;;;5047843;28;20523;-69
2022/10/13 08:44:07;;;;;;;1999.90;999.90;;;15.50;99.90;;;;;;5048416;28;20450;-69
2022/10/13 08:46:42;;;;;;;1999.90;999.90;;;15.80;99.90;;;;;;5045963;28;20693;-69
2022/10/13 08:49:08;;;;;;;1999.90;999.90;;;15.90;99.90;;;;;;5048650;28;20443;-69
2022/10/13 08:51:35;;;;;;;1999.90;999.90;;;16.10;99.90;;;;;;5046513;28;20446;-68
2022/10/13 08:54:04;;;;;;;1999.90;999.90;;;16.30;99.90;;;;;;5047974;28;21037;-69
2022/10/13 08:56:34;;;;;;;1999.90;999.90;;;16.50;99.90;;;;;;5052697;28;20485;-69
2022/10/13 08:59:04;;;;;;;1999.90;999.90;;;16.80;99.90;;;;;;5048780;28;20500;-69
2022/10/13 09:01:34;;;;;;;1999.90;999.90;;;17.00;99.90;;;;;;5046076;28;20448;-69
2022/10/13 09:04:26;;;;;;;1999.90;999.90;;;17.10;99.90;;;;;;5049892;28;20476;-69
2022/10/13 09:06:56;;;;;;;1999.90;999.90;;;17.30;99.90;;;;;;5051371;28;20460;-69
2022/10/13 09:09:22;;;;;;;1999.90;999.90;;;17.50;99.90;;;;;;5047944;28;20448;-69
2022/10/13 09:11:51;;;;;;;1999.90;999.90;;;17.70;99.90;;;;;;5049237;28;20456;-69
2022/10/13 09:14:23;;;;;;;1999.90;999.90;;;18.10;99.90;;;;;;5047673;28;20483;-69
2022/10/13 09:16:51;;;;;;;1999.90;999.90;;;18.30;99.90;;;;;;5049469;28;20973;-69
2022/10/13 09:19:22;;;;;;;1999.90;999.90;;;18.60;99.90;;;;;;5050462;28;20448;-69
2022/10/13 09:21:49;;;;;;;1999.90;999.90;;;18.70;99.90;;;;;;5048857;28;20456;-69
2022/10/13 09:24:18;;;;;;;1999.90;999.90;;;18.70;99.90;;;;;;5048714;28;20447;-69
2022/10/13 09:26:47;;;;;;;1999.90;999.90;;;18.70;99.90;;;;;;5048976;28;20474;-69
2022/10/13 09:29:20;;;;;;;1999.90;999.90;;;18.80;99.90;;;;;;5050005;28;20957;-69
2022/10/13 09:31:47;;;;;;;1999.90;999.90;;;18.90;99.90;;;;;;5048187;28;20440;-69
2022/10/13 09:34:22;;;;;;;1999.90;999.90;;;19.10;99.90;;;;;;5046082;28;20479;-69
2022/10/13 09:36:57;;;;;;;1999.90;999.90;;;19.20;99.90;;;;;;5048663;28;20566;-69
2022/10/13 09:39:23;;;;;;;1999.90;999.90;;;19.30;99.90;;;;;;5055835;28;20477;-69
2022/10/13 09:41:50;;;;;;;1999.90;999.90;;;19.30;99.90;;;;;;5047119;28;20452;-69
2022/10/13 09:44:29;;;;;;;1999.90;999.90;;;19.40;99.90;;;;;;5045460;28;20448;-69
2022/10/13 09:46:59;;;;;;;1999.90;999.90;;;19.40;99.90;;;;;;5046288;28;20467;-69
2022/10/13 09:49:36;;;;;;;1999.90;999.90;;;19.30;99.90;;;;;;5045214;28;20448;-69
2022/10/13 09:52:06;;;;;;;1999.90;999.90;;;19.30;99.90;;;;;;5048141;28;20523;-69
2022/10/13 09:54:45;;;;;;;1999.90;999.90;;;19.20;99.90;;;;;;5049963;28;20478;-70
2022/10/13 09:57:17;;;;;;;1999.90;999.90;;;19.10;99.90;;;;;;5051956;28;20464;-70
2022/10/13 09:59:49;;;;;;;1999.90;999.90;;;19.00;99.90;;;;;;5048589;28;20435;-71
2022/10/13 10:02:28;;;;;;;1999.90;999.90;;;18.90;99.90;;;;;;5048874;28;20451;-70
2022/10/13 10:05:00;;;;;;;1999.90;999.90;;;19.00;99.90;;;;;;5048805;28;20440;-70
2022/10/13 10:07:31;;;;;;;1999.90;999.90;;;19.20;99.90;;;;;;5050806;28;20463;-70
2022/10/13 10:10:01;;;;;;;1999.90;999.90;;;19.30;99.90;;;;;;5049464;28;20456;-72
2022/10/13 10:12:33;;;;;;;1999.90;999.90;;;19.50;99.90;;;;;;5048416;28;20444;-71
2022/10/13 10:15:01;;;;;;;1999.90;999.90;;;19.50;99.90;;;;;;5050656;28;20491;-72
2022/10/13 10:17:35;;;;;;;1999.90;999.90;;;19.50;99.90;;;;;;5048178;28;20468;-72
2022/10/13 10:20:28;;;;;;;1999.90;999.90;;;19.50;99.90;;;;;;5049166;28;20821;-71
2022/10/13 10:23:04;;;;;;;1999.90;999.90;;;19.50;99.90;;;;;;5057860;28;20454;-71
2022/10/13 10:25:38;;;;;;;1999.90;999.90;;;19.40;99.90;;;;;;5066367;28;20446;-71
2022/10/13 10:28:33;;;;;;;1999.90;999.90;;;19.50;99.90;;;;;;5062781;28;20447;-71
2022/10/13 10:31:10;;;;;;;1999.90;999.90;;;19.50;99.90;;;;;;5060353;28;20441;-71
2022/10/13 10:33:46;;;;;;;1999.90;999.90;;;19.40;99.90;;;;;;5059949;28;20450;-69
2022/10/13 10:36:16;;;;;;;1999.90;999.90;;;19.30;99.90;;;;;;5054510;28;20468;-70
2022/10/13 10:38:47;;;;;;;1999.90;999.90;;;19.30;99.90;;;;;;5050144;28;20444;-70
2022/10/13 10:41:26;;;;;;;1999.90;999.90;;;19.20;99.90;;;;;;5054238;28;20432;-70
2022/10/13 10:43:55;;;;;;;1999.90;999.90;;;19.20;99.90;;;;;;5061275;28;20439;-70
2022/10/13 10:46:27;;;;;;;1999.90;999.90;;;19.30;99.90;;;;;;5049499;28;20507;-69
2022/10/13 10:49:00;;;;;;;1999.90;999.90;;;19.30;99.90;;;;;;5049151;28;20443;-70
2022/10/13 10:51:32;;;;;;;1999.90;999.90;;;19.30;99.90;;;;;;5048907;28;20440;-70
2022/10/13 10:54:10;;;;;;;1999.90;999.90;;;19.40;99.90;;;;;;5048560;28;20563;-69
2022/10/13 10:56:39;;;;;;;1999.90;999.90;;;19.40;99.90;;;;;;5053017;28;20464;-70
2022/10/13 10:59:24;;;;;;;1999.90;999.90;;;19.40;99.90;;;;;;5053157;28;20436;-70
2022/10/13 11:02:03;;;;;;;1999.90;999.90;;;19.50;99.90;;;;;;5061100;28;20671;-69
2022/10/13 11:04:40;;;;;;;1999.90;999.90;;;19.50;99.90;;;;;;5055017;28;20442;-69
2022/10/13 11:07:12;;;;;;;1999.90;999.90;;;19.60;99.90;;;;;;5064871;28;20463;-69
2022/10/13 11:10:16;;;;;;;1999.90;999.90;;;19.80;99.90;;;;;;5064775;28;20815;-69
2022/10/13 11:12:48;;;;;;;1999.90;999.90;;;19.90;99.90;;;;;;5048735;28;20439;-69
2022/10/13 11:15:22;;;;;;;1999.90;999.90;;;19.90;99.90;;;;;;5048981;28;20475;-69
2022/10/13 11:17:50;;;;;;;1999.90;999.90;;;19.90;99.90;;;;;;5054790;28;20436;-69
2022/10/13 11:20:49;;;;;;;1999.90;999.90;;;19.90;99.90;;;;;;5052694;28;20832;-69
2022/10/13 11:23:33;;;;;;;1999.90;999.90;;;20.00;99.90;;;;;;5063503;28;20439;-69
2022/10/13 11:26:35;;;;;;;1999.90;999.90;;;20.00;99.90;;;;;;5064409;28;20459;-69
2022/10/13 11:29:02;;;;;;;1999.90;999.90;;;19.90;99.90;;;;;;5055926;28;20462;-69
2022/10/13 11:31:46;;;;;;;1999.90;999.90;;;20.20;99.90;;;;;;5059352;28;20438;-69
2022/10/13 11:34:29;;;;;;;1999.90;999.90;;;20.30;99.90;;;;;;5063742;28;20454;-69
2022/10/13 11:36:59;;;;;;;1999.90;999.90;;;20.60;99.90;;;;;;5062852;28;20843;-69
2022/10/13 11:40:00;;;;;;;1999.90;999.90;;;20.70;99.90;;;;;;5063050;28;20475;-69
2022/10/13 11:42:47;;;;;;;1999.90;999.90;;;20.80;99.90;;;;;;5062622;28;20461;-69
2022/10/13 11:45:29;;;;;;;1999.90;999.90;;;20.80;99.90;;;;;;5058960;28;20436;-69
2022/10/13 11:48:26;;;;;;;1999.90;999.90;;;20.80;99.90;;;;;;5061729;28;20469;-69
2022/10/13 11:51:07;;;;;;;1999.90;999.90;;;20.70;99.90;;;;;;5041756;28;20447;-69
2022/10/13 11:53:43;;;;;;;1999.90;999.90;;;20.70;99.90;;;;;;5057669;28;20446;-69
2022/10/13 11:56:20;;;;;;;1999.90;999.90;;;20.80;99.90;;;;;;5064140;28;20985;-69
2022/10/13 11:58:47;;;;;;;1999.90;999.90;;;20.70;99.90;;;;;;5065296;28;20451;-68
2022/10/13 12:01:16;;;;;;;1999.90;999.90;;;20.60;99.90;;;;;;5062880;28;20432;-69
2022/10/13 12:03:44;;;;;;;1999.90;999.90;;;20.60;99.90;;;;;;5063212;28;20435;-68
2022/10/13 12:06:32;;;;;;;1999.90;999.90;;;20.40;99.90;;;;;;5062691;28;20451;-68
2022/10/13 12:09:01;;;;;;;1999.90;999.90;;;20.40;99.90;;;;;;5058129;28;20476;-68
2022/10/13 12:11:29;;;;;;;1999.90;999.90;;;20.50;99.90;;;;;;5066350;28;20443;-67
2022/10/13 12:13:57;;;;;;;1999.90;999.90;;;20.80;99.90;;;;;;5065315;28;20539;-68